createdAt,value
2019-02-27T00:01:56.823Z,18.73
2019-02-27T00:04:34.830Z,16.87
2019-02-27T00:07:08.041Z,17.75
2019-02-27T00:09:42.805Z,20.95
2019-02-27T00:12:19.329Z,19.42
2019-02-27T00:15:20.669Z,15.50
2019-02-27T00:17:55.972Z,16.35
2019-02-27T00:20:30.338Z,17.00
2019-02-27T00:23:05.453Z,16.50
2019-02-27T00:25:40.198Z,15.28
2019-02-27T00:28:15.341Z,14.50
2019-02-27T00:30:52.130Z,16.40
2019-02-27T00:33:28.700Z,16.00
2019-02-27T00:36:03.438Z,16.82
2019-02-27T00:38:38.147Z,17.67
2019-02-27T00:41:13.104Z,17.60
2019-02-27T00:43:47.796Z,14.13
2019-02-27T00:46:22.499Z,16.87
2019-02-27T00:48:59.366Z,16.25
2019-02-27T00:51:33.801Z,21.10
2019-02-27T00:54:09.600Z,15.95
2019-02-27T01:01:54.318Z,20.65
2019-02-27T01:04:29.073Z,20.45
2019-02-27T01:07:03.965Z,15.98
2019-02-27T01:09:39.510Z,19.87
2019-02-27T01:12:14.608Z,20.02
2019-02-27T01:17:23.941Z,22.15
2019-02-27T01:25:08.356Z,22.00
2019-02-27T01:27:42.787Z,19.77
2019-02-27T01:30:17.695Z,19.90
2019-02-27T01:32:51.979Z,19.67
2019-02-27T01:35:26.312Z,21.80
2019-02-27T01:38:05.056Z,22.60
2019-02-27T01:40:36.819Z,23.35
2019-02-27T01:43:11.139Z,20.65
2019-02-27T01:45:45.809Z,20.37
2019-02-27T01:48:20.027Z,23.77
2019-02-27T01:50:55.313Z,21.17
2019-02-27T01:53:30.324Z,22.30
2019-02-27T01:56:04.808Z,20.45
2019-02-27T01:58:43.458Z,23.73
2019-02-27T02:01:15.910Z,25.92
2019-02-27T02:03:50.446Z,25.88
2019-02-27T02:06:25.071Z,26.57
2019-02-27T02:09:35.323Z,24.10
2019-02-27T02:12:30.572Z,20.97
2019-02-27T02:16:19.610Z,22.10
2019-02-27T02:23:50.129Z,21.17
2019-02-27T02:27:22.815Z,20.35
2019-02-27T02:31:27.453Z,22.52
2019-02-27T02:35:50.708Z,21.93
2019-02-27T02:39:21.585Z,19.20
2019-02-27T02:46:09.665Z,19.10
2019-02-27T02:50:09.520Z,17.42
2019-02-27T02:53:49.063Z,15.65
2019-02-27T02:57:53.556Z,27.02
2019-02-27T03:04:20.328Z,23.12
2019-02-27T03:07:50.321Z,20.92
2019-02-27T03:11:19.136Z,19.98
2019-02-27T03:22:05.067Z,19.37
2019-02-27T03:25:42.801Z,16.23
2019-02-27T03:29:31.969Z,16.30
2019-02-27T03:32:44.787Z,19.73
2019-02-27T03:36:24.862Z,20.48
2019-02-27T03:39:48.214Z,19.27
2019-02-27T03:43:46.115Z,18.00
2019-02-27T03:47:39.483Z,20.15
2019-02-27T03:51:24.784Z,16.82
2019-02-27T03:54:35.325Z,17.32
2019-02-27T03:58:35.707Z,19.17
2019-02-27T04:02:45.055Z,19.65
2019-02-27T04:06:21.334Z,20.27
2019-02-27T04:08:54.890Z,17.30
2019-02-27T04:11:30.369Z,17.60
2019-02-27T04:14:31.076Z,20.25
2019-02-27T04:17:07.530Z,22.75
2019-02-27T04:19:42.535Z,18.80
2019-02-27T04:22:17.128Z,16.40
2019-02-27T04:24:56.371Z,20.72
2019-02-27T04:27:28.311Z,20.27
2019-02-27T04:30:04.699Z,22.20
2019-02-27T04:32:48.678Z,24.67
2019-02-27T04:35:25.452Z,19.80
2019-02-27T04:38:04.320Z,20.62
2019-02-27T04:40:41.740Z,27.25
2019-02-27T04:43:16.368Z,23.77
2019-02-27T04:45:51.812Z,21.00
2019-02-27T04:48:53.880Z,21.05
2019-02-27T04:51:31.373Z,22.30
2019-02-27T04:54:08.023Z,20.60
2019-02-27T04:56:50.538Z,26.75
2019-02-27T04:59:25.125Z,21.07
2019-02-27T05:01:59.903Z,23.90
2019-02-27T05:04:36.043Z,18.80
2019-02-27T05:07:10.809Z,18.30
2019-02-27T05:09:45.713Z,19.57
2019-02-27T05:17:32.343Z,20.00
2019-02-27T05:20:11.630Z,19.60
2019-02-27T05:22:44.493Z,18.25
2019-02-27T05:25:20.316Z,20.15
2019-02-27T05:27:54.652Z,19.20
2019-02-27T05:30:29.329Z,20.90
2019-02-27T05:33:03.985Z,17.40
2019-02-27T05:35:38.543Z,18.65
2019-02-27T05:38:13.088Z,18.70
2019-02-27T05:40:50.814Z,19.35
2019-02-27T05:43:25.789Z,20.43
2019-02-27T05:46:03.187Z,20.00
2019-02-27T05:48:38.105Z,22.37
2019-02-27T05:51:13.139Z,20.68
2019-02-27T05:53:48.207Z,24.45
2019-02-27T05:56:22.648Z,25.37
2019-02-27T06:01:32.039Z,20.05
2019-02-27T06:04:07.325Z,28.05
2019-02-27T06:06:45.008Z,20.48
2019-02-27T06:09:21.052Z,30.48
2019-02-27T06:11:56.454Z,23.02
2019-02-27T06:14:31.854Z,23.10
2019-02-27T06:17:06.839Z,19.90
2019-02-27T06:19:41.826Z,22.13
2019-02-27T06:22:17.546Z,24.87
2019-02-27T06:24:52.315Z,24.43
2019-02-27T06:27:27.083Z,20.82
2019-02-27T06:30:02.276Z,19.30
2019-02-27T06:32:37.516Z,20.30
2019-02-27T06:35:12.796Z,24.45
2019-02-27T06:37:51.748Z,18.45
2019-02-27T06:40:31.767Z,22.20
2019-02-27T06:43:07.326Z,22.50
2019-02-27T06:45:45.499Z,18.85
2019-02-27T06:50:54.091Z,19.02
2019-02-27T06:53:30.132Z,21.97
2019-02-27T06:56:06.208Z,18.52
2019-02-27T06:58:40.794Z,22.32
2019-02-27T07:01:16.017Z,20.10
2019-02-27T07:03:50.762Z,21.73
2019-02-27T07:06:26.895Z,21.00
2019-02-27T07:09:02.472Z,20.82
2019-02-27T07:14:27.002Z,22.00
2019-02-27T07:17:01.518Z,22.82
2019-02-27T07:22:12.516Z,20.88
2019-02-27T07:24:46.527Z,22.13
2019-02-27T07:27:21.844Z,21.45
2019-02-27T07:29:57.106Z,23.35
2019-02-27T07:32:32.182Z,24.30
2019-02-27T07:35:07.322Z,23.77
2019-02-27T07:37:46.971Z,22.67
2019-02-27T07:40:19.312Z,26.35
2019-02-27T07:42:54.306Z,25.12
2019-02-27T07:45:29.326Z,22.00
2019-02-27T07:48:04.564Z,25.32
2019-02-27T07:53:17.452Z,25.30
2019-02-27T07:55:51.926Z,18.15
2019-02-27T07:58:29.236Z,19.80
2019-02-27T08:01:04.638Z,22.52
2019-02-27T08:03:44.666Z,19.80
2019-02-27T08:06:23.547Z,17.40
2019-02-27T08:08:58.974Z,21.42
2019-02-27T08:11:33.634Z,20.37
2019-02-27T08:14:08.316Z,22.85
2019-02-27T08:16:42.992Z,20.70
2019-02-27T08:19:17.876Z,16.67
2019-02-27T08:21:54.943Z,20.70
2019-02-27T08:24:29.296Z,14.50
2019-02-27T08:27:03.947Z,15.80
2019-02-27T08:29:38.732Z,16.62
2019-02-27T08:32:13.060Z,14.05
2019-02-27T08:34:47.620Z,17.25
2019-02-27T08:39:55.909Z,16.45
2019-02-27T08:42:30.532Z,16.48
2019-02-27T08:45:05.608Z,14.35
2019-02-27T08:50:17.008Z,15.10
2019-02-27T08:52:51.977Z,14.55
2019-02-27T08:55:27.345Z,13.10
2019-02-27T08:58:02.075Z,14.80
2019-02-27T09:00:36.942Z,16.07
2019-02-27T09:03:19.995Z,13.38
2019-02-27T09:05:51.017Z,14.15
2019-02-27T09:08:25.880Z,13.68
2019-02-27T09:11:05.592Z,11.78
2019-02-27T09:13:37.314Z,13.05
2019-02-27T09:16:12.309Z,19.45
2019-02-27T09:18:46.799Z,15.80
2019-02-27T09:21:21.592Z,13.70
2019-02-27T09:26:29.725Z,11.43
2019-02-27T09:31:38.592Z,12.40
2019-02-27T09:34:13.167Z,13.45
2019-02-27T09:36:49.145Z,13.60
2019-02-27T09:39:24.018Z,13.85
2019-02-27T09:41:58.686Z,11.18
2019-02-27T09:44:36.410Z,15.50
2019-02-27T09:47:10.548Z,14.85
2019-02-27T09:49:45.092Z,14.47
2019-02-27T09:52:19.817Z,43.92
2019-02-27T09:54:54.895Z,12.43
2019-02-27T09:57:29.794Z,13.18
2019-02-27T10:00:30.303Z,13.83
2019-02-27T10:03:04.891Z,13.03
2019-02-27T10:05:40.810Z,11.40
2019-02-27T10:08:15.629Z,18.27
2019-02-27T10:13:23.726Z,11.45
2019-02-27T10:16:01.364Z,17.27
2019-02-27T10:23:44.856Z,15.85
2019-02-27T10:26:20.463Z,14.75
2019-02-27T10:28:55.864Z,14.78
2019-02-27T10:31:30.444Z,13.83
2019-02-27T10:34:05.883Z,13.00
2019-02-27T10:36:40.591Z,13.65
2019-02-27T10:41:51.866Z,13.68
2019-02-27T10:44:26.332Z,14.58
2019-02-27T10:47:00.874Z,13.28
2019-02-27T10:49:38.242Z,14.65
2019-02-27T10:52:12.652Z,13.25
2019-02-27T10:57:24.312Z,12.75
2019-02-27T10:59:58.645Z,14.18
2019-02-27T11:05:10.546Z,14.03
2019-02-27T11:07:46.585Z,12.65
2019-02-27T11:10:27.716Z,13.22
2019-02-27T11:13:06.984Z,12.40
2019-02-27T11:15:44.802Z,13.40
2019-02-27T11:18:19.774Z,14.80
2019-02-27T11:20:55.706Z,15.98
2019-02-27T11:23:32.357Z,13.13
2019-02-27T11:26:09.554Z,14.60
2019-02-27T11:28:49.811Z,15.55
2019-02-27T11:31:28.494Z,14.35
2019-02-27T11:36:44.952Z,14.15
2019-02-27T11:39:24.943Z,13.08
2019-02-27T11:42:04.374Z,18.95
2019-02-27T11:49:57.021Z,16.50
2019-02-27T11:52:32.322Z,13.85
2019-02-27T11:55:15.011Z,14.53
2019-02-27T12:01:23.756Z,12.58
2019-02-27T12:03:58.336Z,12.53
2019-02-27T12:06:33.054Z,13.65
2019-02-27T12:09:10.573Z,12.07
2019-02-27T12:14:26.986Z,15.88
2019-02-27T12:17:09.884Z,15.05
2019-02-27T12:19:57.557Z,12.07
2019-02-27T12:22:32.978Z,13.60
2019-02-27T12:25:11.686Z,13.93
2019-02-27T12:27:49.761Z,13.28
2019-02-27T12:30:25.310Z,10.32
2019-02-27T12:33:00.345Z,12.68
2019-02-27T12:35:37.228Z,12.15
2019-02-27T12:38:12.333Z,13.65
2019-02-27T12:40:47.034Z,11.22
2019-02-27T12:43:25.168Z,10.70
2019-02-27T12:46:00.916Z,11.35
2019-02-27T12:48:39.154Z,14.03
2019-02-27T12:51:14.310Z,12.82
2019-02-27T12:53:54.631Z,15.40
2019-02-27T12:56:29.791Z,14.68
2019-02-27T12:59:04.316Z,13.35
2019-02-27T13:01:40.010Z,13.68
2019-02-27T13:04:16.589Z,15.00
2019-02-27T13:06:50.986Z,13.70
2019-02-27T13:09:25.670Z,12.40
2019-02-27T13:12:00.464Z,11.78
2019-02-27T13:14:38.839Z,11.15
2019-02-27T13:17:15.324Z,14.80
2019-02-27T13:25:00.688Z,11.68
2019-02-27T13:27:35.371Z,12.15
2019-02-27T13:30:13.685Z,14.03
2019-02-27T13:32:51.143Z,13.72
2019-02-27T13:35:28.678Z,14.15
2019-02-27T13:38:11.139Z,17.95
2019-02-27T13:40:49.054Z,15.48
2019-02-27T13:43:24.385Z,17.45
2019-02-27T13:46:00.530Z,16.87
2019-02-27T13:48:37.378Z,13.83
2019-02-27T13:51:13.665Z,15.80
2019-02-27T13:53:49.960Z,12.35
2019-02-27T13:56:25.146Z,12.33
2019-02-27T13:59:00.862Z,12.70
2019-02-27T14:01:37.893Z,13.72
2019-02-27T14:04:13.091Z,14.28
2019-02-27T14:06:50.313Z,10.80
2019-02-27T14:09:25.107Z,11.75
2019-02-27T14:11:59.847Z,12.45
2019-02-27T14:14:34.613Z,10.80
2019-02-27T14:19:43.532Z,10.93
2019-02-27T14:22:18.435Z,11.45
2019-02-27T14:24:54.869Z,10.00
2019-02-27T14:27:31.814Z,9.45
2019-02-27T14:30:14.075Z,9.35
2019-02-27T14:32:49.073Z,9.13
2019-02-27T14:35:27.713Z,7.58
2019-02-27T14:38:02.633Z,10.80
2019-02-27T14:40:40.953Z,10.55
2019-02-27T14:43:16.460Z,11.08
2019-02-27T14:45:51.692Z,12.10
2019-02-27T14:48:26.583Z,11.20
2019-02-27T14:51:01.924Z,12.10
2019-02-27T14:53:37.435Z,12.70
2019-02-27T14:56:12.577Z,9.80
2019-02-27T14:58:47.007Z,8.98
2019-02-27T15:01:27.540Z,12.13
2019-02-27T15:04:02.775Z,9.15
2019-02-27T15:06:37.835Z,9.75
2019-02-27T15:09:12.855Z,8.33
2019-02-27T15:11:50.606Z,9.53
2019-02-27T15:14:25.527Z,8.38
2019-02-27T15:17:00.638Z,12.23
2019-02-27T15:19:36.997Z,10.03
2019-02-27T15:22:13.834Z,8.98
2019-02-27T15:24:48.549Z,9.33
2019-02-27T15:29:59.116Z,9.38
2019-02-27T15:32:33.852Z,8.93
2019-02-27T15:35:08.931Z,9.85
2019-02-27T15:37:44.471Z,20.00
2019-02-27T15:40:21.712Z,12.37
2019-02-27T15:42:57.617Z,8.73
2019-02-27T15:45:32.574Z,10.23
2019-02-27T15:48:07.689Z,9.33
2019-02-27T15:50:42.548Z,11.15
2019-02-27T15:55:51.150Z,9.75
2019-02-27T15:58:28.048Z,14.75
2019-02-27T16:01:03.124Z,10.32
2019-02-27T16:03:38.818Z,9.58
2019-02-27T16:06:13.144Z,8.83
2019-02-27T16:08:47.785Z,9.93
2019-02-27T16:11:22.574Z,16.40
2019-02-27T16:13:57.190Z,16.35
2019-02-27T16:16:31.812Z,20.88
2019-02-27T16:19:07.976Z,16.32
2019-02-27T16:24:18.050Z,14.80
2019-02-27T16:26:53.662Z,14.05
2019-02-27T16:32:03.585Z,12.65
2019-02-27T16:39:46.160Z,13.53
2019-02-27T16:42:20.625Z,15.53
2019-02-27T16:47:32.819Z,17.45
2019-02-27T16:50:17.238Z,20.45
2019-02-27T16:52:52.953Z,17.92
2019-02-27T16:55:28.369Z,14.43
2019-02-27T16:58:04.011Z,15.55
2019-02-27T17:00:39.806Z,13.78
2019-02-27T17:03:14.813Z,16.82
2019-02-27T17:05:49.819Z,15.25
2019-02-27T17:08:24.315Z,14.47
2019-02-27T17:10:59.778Z,14.58
2019-02-27T17:13:34.325Z,18.10
2019-02-27T17:16:10.853Z,16.23
2019-02-27T17:18:45.794Z,14.53
2019-02-27T17:21:22.592Z,14.25
2019-02-27T17:23:57.534Z,16.52
2019-02-27T17:26:32.131Z,12.40
2019-02-27T17:29:07.422Z,11.22
2019-02-27T17:31:49.322Z,15.25
2019-02-27T17:34:19.333Z,12.30
2019-02-27T17:36:54.158Z,12.40
2019-02-27T17:39:30.571Z,15.28
2019-02-27T17:42:05.556Z,15.48
2019-02-27T17:52:22.646Z,15.38
2019-02-27T17:57:31.578Z,19.37
2019-02-27T18:02:47.849Z,25.25
2019-02-27T18:05:25.511Z,22.82
2019-02-27T18:07:58.807Z,14.47
2019-02-27T18:10:37.101Z,16.10
2019-02-27T18:13:10.707Z,14.33
2019-02-27T18:18:19.309Z,14.63
2019-02-27T18:20:56.708Z,14.25
2019-02-27T18:23:31.149Z,17.20
2019-02-27T18:26:06.047Z,16.73
2019-02-27T18:28:42.144Z,18.42
2019-02-27T18:31:17.326Z,25.55
2019-02-27T18:33:52.029Z,35.95
2019-02-27T18:36:26.694Z,27.05
2019-02-27T18:39:02.517Z,23.98
2019-02-27T18:41:39.819Z,22.10
2019-02-27T18:44:14.540Z,25.08
2019-02-27T18:46:49.521Z,25.37
2019-02-27T18:49:24.692Z,18.95
2019-02-27T18:51:59.059Z,21.82
2019-02-27T18:54:34.185Z,21.37
2019-02-27T18:57:11.889Z,18.98
2019-02-27T18:59:46.301Z,17.87
2019-02-27T19:02:30.341Z,19.45
2019-02-27T19:05:06.651Z,15.15
2019-02-27T19:07:42.636Z,18.32
2019-02-27T19:12:52.316Z,16.32
2019-02-27T19:15:27.426Z,14.13
2019-02-27T19:18:03.697Z,18.80
2019-02-27T19:20:40.577Z,18.00
2019-02-27T19:28:26.550Z,18.85
2019-02-27T19:33:36.572Z,14.80
2019-02-27T19:36:18.909Z,18.30
2019-02-27T19:38:48.962Z,15.20
2019-02-27T19:41:23.602Z,14.75
2019-02-27T19:46:32.343Z,18.60
2019-02-27T19:49:07.219Z,18.57
2019-02-27T19:51:41.811Z,19.90
2019-02-27T19:54:18.544Z,19.15
2019-02-27T19:56:55.130Z,22.80
2019-02-27T19:59:29.586Z,19.62
2019-02-27T20:04:42.911Z,17.30
2019-02-27T20:07:14.272Z,18.55
2019-02-27T20:09:51.395Z,16.95
2019-02-27T20:12:25.545Z,16.60
2019-02-27T20:15:00.436Z,16.35
2019-02-27T20:17:35.352Z,19.20
2019-02-27T20:20:13.561Z,20.70
2019-02-27T20:27:58.867Z,20.08
2019-02-27T20:30:34.447Z,19.92
2019-02-27T20:33:09.313Z,19.43
2019-02-27T20:35:44.036Z,20.88
2019-02-27T20:38:19.753Z,20.45
2019-02-27T20:40:54.822Z,18.50
2019-02-27T20:43:30.217Z,21.95
2019-02-27T20:46:05.406Z,17.25
2019-02-27T20:48:42.091Z,20.25
2019-02-27T20:51:20.173Z,19.98
2019-02-27T20:53:56.531Z,16.90
2019-02-27T20:59:07.526Z,17.62
2019-02-27T21:01:46.888Z,18.90
2019-02-27T21:04:18.835Z,19.85
2019-02-27T21:06:54.168Z,20.75
2019-02-27T21:09:31.534Z,21.62
2019-02-27T21:12:07.212Z,20.17
2019-02-27T21:14:42.323Z,20.10
2019-02-27T21:17:21.128Z,23.15
2019-02-27T21:19:53.826Z,22.42
2019-02-27T21:22:28.531Z,17.60
2019-02-27T21:27:37.858Z,21.42
2019-02-27T21:30:18.741Z,19.37
2019-02-27T21:32:52.599Z,18.00
2019-02-27T21:40:39.682Z,20.08
2019-02-27T21:45:48.011Z,19.20
2019-02-27T21:48:23.397Z,20.48
2019-02-27T21:51:02.039Z,22.10
2019-02-27T21:53:38.773Z,21.62
2019-02-27T21:56:15.181Z,22.37
2019-02-27T21:58:52.416Z,22.75
2019-02-27T22:01:31.241Z,20.17
2019-02-27T22:04:53.615Z,20.62
2019-02-27T22:07:32.888Z,20.00
2019-02-27T22:10:08.329Z,20.80
2019-02-27T22:12:46.333Z,23.00
2019-02-27T22:15:27.822Z,20.57
2019-02-27T22:18:02.630Z,18.45
2019-02-27T22:23:12.637Z,16.85
2019-02-27T22:25:47.864Z,22.48
2019-02-27T22:28:26.318Z,17.20
2019-02-27T22:31:06.094Z,18.82
2019-02-27T22:33:40.530Z,19.07
2019-02-27T22:36:15.328Z,16.82
2019-02-27T22:39:01.529Z,18.57
2019-02-27T22:41:40.672Z,16.77
2019-02-27T22:44:15.043Z,18.05
2019-02-27T22:46:49.701Z,17.82
2019-02-27T22:49:25.037Z,18.17
2019-02-27T22:52:01.092Z,17.90
2019-02-27T22:54:36.109Z,19.98
2019-02-27T22:57:14.241Z,20.65
2019-02-27T22:59:49.331Z,20.20
2019-02-27T23:02:24.944Z,16.42
2019-02-27T23:05:01.368Z,18.62
2019-02-27T23:07:37.530Z,21.90
2019-02-27T23:10:13.653Z,16.93
2019-02-27T23:15:24.769Z,19.12
2019-02-27T23:17:58.988Z,20.32
2019-02-27T23:20:33.796Z,20.43
2019-02-27T23:23:08.415Z,16.62
2019-02-27T23:25:42.782Z,17.05
2019-02-27T23:28:17.877Z,20.02
2019-02-27T23:30:52.523Z,15.65
2019-02-27T23:33:29.038Z,19.23
2019-02-27T23:36:03.838Z,19.17
2019-02-27T23:38:38.552Z,16.80
2019-02-27T23:41:13.315Z,15.90
2019-02-27T23:43:47.850Z,16.77
2019-02-27T23:46:22.326Z,18.07
2019-02-27T23:48:56.820Z,17.70
2019-02-27T23:56:42.702Z,16.30
2019-02-27T23:59:17.921Z,16.48
